Time;durP1;ratioP1;P1;durP2;ratioP2;P2;SDS_P1;SDS_P2;PMS_P1;PMS_P2;Temp;Humidity;BMP_temperature;BMP_pressure;BME280_temperature;BME280_humidity;BME280_pressure;Samples;Min_cycle;Max_cycle;Signal;HPM_P1;HPM_P2
2022/01/10 00:00:31;;;;;;;;;;;;;;;22.00;44.80;99260.31;2098391;28;19917;-67
2022/01/10 00:01:31;;;;;;;;;;;;;;;21.99;44.96;99253.09;2098508;28;19967;-67
2022/01/10 00:02:31;;;;;;;;;;;;;;;21.99;44.92;99262.16;2107338;28;19962;-66
2022/01/10 00:03:32;;;;;;;;;;;;;;;21.99;44.98;99258.56;2107566;28;20402;-67
2022/01/10 00:04:32;;;;;;;;;;;;;;;21.99;45.04;99258.56;2105763;28;20343;-66
2022/01/10 00:05:32;;;;;;;;;;;;;;;22.00;44.79;99263.03;2107013;28;19993;-67
2022/01/10 00:06:33;;;;;;;;;;;;;;;21.99;45.07;99258.56;2107370;28;20307;-66
2022/01/10 00:07:33;;;;;;;;;;;;;;;21.98;44.92;99259.63;2107251;28;19912;-67
2022/01/10 00:08:34;;;;;;;;;;;;;;;21.97;45.04;99258.75;2107397;28;19912;-66
2022/01/10 00:09:34;;;;;;;;;;;;;;;21.96;45.15;99253.47;2107466;28;19912;-66
2022/01/10 00:10:35;;;;;;;;;;;;;;;21.95;45.17;99259.97;2107476;28;20417;-67
2022/01/10 00:11:36;;;;;;;;;;;;;;;21.95;45.20;99249.00;2107609;28;19912;-67
2022/01/10 00:12:36;;;;;;;;;;;;;;;21.94;45.08;99255.56;2107239;28;19938;-66
2022/01/10 00:13:36;;;;;;;;;;;;;;;21.93;45.07;99262.09;2107385;28;19912;-67
2022/01/10 00:14:36;;;;;;;;;;;;;;;21.93;45.29;99248.38;2107398;28;20309;-66
2022/01/10 00:15:37;;;;;;;;;;;;;;;21.92;44.98;99238.41;2107424;28;20306;-67
2022/01/10 00:16:37;;;;;;;;;;;;;;;21.92;45.23;99238.41;2098261;28;19912;-67
2022/01/10 00:17:38;;;;;;;;;;;;;;;21.92;45.33;99232.94;2098232;28;19934;-67
2022/01/10 00:18:38;;;;;;;;;;;;;;;21.90;45.25;99233.13;2107332;28;19916;-67
2022/01/10 00:19:39;;;;;;;;;;;;;;;21.90;45.43;99235.00;2107181;28;19919;-67
2022/01/10 00:20:39;;;;;;;;;;;;;;;21.89;45.22;99234.16;2107380;28;19915;-66
2022/01/10 00:21:39;;;;;;;;;;;;;;;21.88;45.44;99232.47;2107392;28;20362;-67
2022/01/10 00:22:41;;;;;;;;;;;;;;;21.89;45.34;99236.06;2107109;28;19938;-67
2022/01/10 00:23:41;;;;;;;;;;;;;;;21.88;45.29;99228.84;2107327;28;19919;-66
2022/01/10 00:24:41;;;;;;;;;;;;;;;21.87;45.27;99230.75;2107283;28;19919;-66
2022/01/10 00:25:42;;;;;;;;;;;;;;;21.88;45.48;99226.09;2107270;28;19949;-66
2022/01/10 00:26:42;;;;;;;;;;;;;;;21.87;45.54;99227.16;2107145;28;19916;-67
2022/01/10 00:27:43;;;;;;;;;;;;;;;21.86;45.15;99222.72;2107226;28;19923;-66
2022/01/10 00:28:43;;;;;;;;;;;;;;;21.86;45.22;99222.72;2107297;28;19983;-66
2022/01/10 00:29:43;;;;;;;;;;;;;;;21.86;45.60;99222.72;2107518;28;19912;-66
2022/01/10 00:30:44;;;;;;;;;;;;;;;21.84;45.43;99226.50;2107281;28;19938;-66
2022/01/10 00:31:44;;;;;;;;;;;;;;;21.84;45.43;99217.41;2107265;28;20006;-66
2022/01/10 00:32:45;;;;;;;;;;;;;;;21.83;45.30;99213.84;2107065;28;19918;-66
2022/01/10 00:33:45;;;;;;;;;;;;;;;21.82;45.33;99211.25;2107221;28;19912;-65
2022/01/10 00:34:46;;;;;;;;;;;;;;;21.82;45.47;99217.59;2107081;28;20390;-65
2022/01/10 00:35:47;;;;;;;;;;;;;;;21.82;45.55;99211.25;2107119;28;19916;-65
2022/01/10 00:36:47;;;;;;;;;;;;;;;21.81;45.34;99210.41;2106995;28;20003;-65
2022/01/10 00:37:49;;;;;;;;;;;;;;;21.78;45.67;99208.06;2106925;28;20018;-65
2022/01/10 00:38:49;;;;;;;;;;;;;;;21.74;45.59;99206.72;2107022;28;20386;-66
2022/01/10 00:39:49;;;;;;;;;;;;;;;21.70;45.61;99202.66;2107116;28;19912;-66
2022/01/10 00:40:51;;;;;;;;;;;;;;;21.68;45.64;99204.75;2107222;28;20317;-65
2022/01/10 00:41:55;;;;;;;;;;;;;;;21.65;45.84;99202.38;2107216;28;19957;-66
2022/01/10 00:42:56;;;;;;;;;;;;;;;21.61;45.84;99201.06;2107122;28;20424;-65
2022/01/10 00:43:57;;;;;;;;;;;;;;;;;;2106994;28;19912;-65
2022/01/10 00:45:01;;;;;;;;;;;;;;;21.56;45.92;99200.78;2107216;28;19912;-65
2022/01/10 00:46:02;;;;;;;;;;;;;;;21.55;46.06;99205.38;2107260;28;19962;-66
2022/01/10 00:47:03;;;;;;;;;;;;;;;21.55;46.00;99212.75;2106331;28;19922;-66
2022/01/10 00:48:03;;;;;;;;;;;;;;;21.55;45.87;99212.75;2106352;28;19919;-65
2022/01/10 00:49:03;;;;;;;;;;;;;;;21.54;46.21;99206.44;2106390;28;19912;-65
2022/01/10 00:50:04;;;;;;;;;;;;;;;21.49;45.83;99206.16;2090900;28;19924;-65
2022/01/10 00:51:05;;;;;;;;;;;;;;;21.31;45.77;99206.47;2099930;28;20370;-65
2022/01/10 00:52:06;;;;;;;;;;;;;;;21.16;46.05;99211.03;2108909;28;19919;-65
2022/01/10 00:53:06;;;;;;;;;;;;;;;21.05;46.49;99200.53;2108886;28;19951;-65
2022/01/10 00:54:06;;;;;;;;;;;;;;;20.95;46.57;99207.13;2109007;28;19912;-65
2022/01/10 00:55:07;;;;;;;;;;;;;;;20.87;47.03;99207.19;2108906;28;19974;-65
2022/01/10 00:56:09;;;;;;;;;;;;;;;20.82;47.06;99200.53;2108969;28;19912;-66
2022/01/10 00:57:09;;;;;;;;;;;;;;;20.77;47.31;99199.22;2109026;28;19999;-65
2022/01/10 00:58:10;;;;;;;;;;;;;;;20.75;47.45;99197.69;2109015;28;19912;-66
2022/01/10 00:59:10;;;;;;;;;;;;;;;20.71;47.47;99191.72;2108998;28;19912;-66
2022/01/10 01:00:11;;;;;;;;;;;;;;;20.69;47.43;99185.56;2109046;28;19967;-65
2022/01/10 01:01:12;;;;;;;;;;;;;;;20.68;47.69;99186.59;2109036;28;20325;-65
2022/01/10 01:02:12;;;;;;;;;;;;;;;20.67;47.49;99190.38;2108875;28;19916;-65
2022/01/10 01:03:13;;;;;;;;;;;;;;;20.66;47.63;99193.31;2108895;28;20282;-65
2022/01/10 01:04:14;;;;;;;;;;;;;;;20.62;47.59;99192.81;2108933;28;20255;-66
2022/01/10 01:05:16;;;;;;;;;;;;;;;20.63;47.68;99197.25;2109108;28;19962;-65
2022/01/10 01:06:17;;;;;;;;;;;;;;;20.62;47.86;99205.66;2108881;28;19923;-65
2022/01/10 01:07:17;;;;;;;;;;;;;;;20.62;47.84;99202.91;2109022;28;19919;-64
2022/01/10 01:08:18;;;;;;;;;;;;;;;20.61;47.68;99209.44;2108370;28;20347;-65
2022/01/10 01:09:23;;;;;;;;;;;;;;;20.59;47.83;99198.66;2108349;28;19912;-65
2022/01/10 01:13:57;;;;;;;;;;;;;;;20.55;47.92;99191.81;2108895;28;19912;-67
2022/01/10 01:15:17;;;;;;;;;;;;;;;20.55;47.98;99197.28;2108635;28;19939;-66
2022/01/10 01:16:29;;;;;;;;;;;;;;;20.54;47.95;99196.41;2108864;28;20282;-66
2022/01/10 01:25:22;;;;;;;;;;;;;;;20.51;48.05;99196.78;2090850;28;19912;-66
2022/01/10 01:26:23;;;;;;;;;;;;;;;20.51;48.22;99195.94;2108822;28;19962;-66
2022/01/10 01:27:23;;;;;;;;;;;;;;;20.51;47.96;99202.25;2108722;28;19969;-66
2022/01/10 01:28:23;;;;;;;;;;;;;;;20.52;48.08;99203.09;2109092;28;19954;-66
2022/01/10 01:29:25;;;;;;;;;;;;;;;20.52;47.99;99203.94;2108692;28;19912;-66
2022/01/10 01:30:25;;;;;;;;;;;;;;;20.51;48.18;99213.22;2108663;28;19913;-66
2022/01/10 01:31:26;;;;;;;;;;;;;;;20.52;48.09;99214.91;2108651;28;19912;-67
2022/01/10 01:32:26;;;;;;;;;;;;;;;20.53;48.13;99218.50;2108612;28;19921;-66
2022/01/10 01:33:26;;;;;;;;;;;;;;;20.53;47.93;99210.31;2108897;28;19955;-66
2022/01/10 01:34:27;;;;;;;;;;;;;;;20.54;48.17;99212.00;2108619;28;19912;-66
2022/01/10 01:35:27;;;;;;;;;;;;;;;20.54;47.98;99212.00;2108696;28;19982;-66
2022/01/10 01:36:30;;;;;;;;;;;;;;;20.55;47.95;99209.13;2099429;28;20085;-67
2022/01/10 01:37:30;;;;;;;;;;;;;;;20.54;48.08;99210.09;2099047;28;19908;-67
2022/01/10 01:38:31;;;;;;;;;;;;;;;20.56;47.98;99212.72;2102728;28;20373;-67
2022/01/10 01:39:32;;;;;;;;;;;;;;;20.57;47.97;99205.34;2102144;28;19962;-67
2022/01/10 01:40:33;;;;;;;;;;;;;;;20.58;48.08;99207.03;2115830;28;19955;-65
2022/01/10 01:43:34;;;;;;;;;;;;;;;20.58;47.80;99201.56;2110939;28;19912;-66
2022/01/10 01:44:34;;;;;;;;;;;;;;;20.59;47.88;99204.13;2108472;28;20290;-66
2022/01/10 01:45:46;;;;;;;;;;;;;;;20.60;48.02;99199.50;2108598;28;19939;-65
2022/01/10 01:46:46;;;;;;;;;;;;;;;20.61;47.86;99203.94;2108868;28;19912;-65
2022/01/10 01:47:47;;;;;;;;;;;;;;;20.61;47.99;99198.47;2108394;28;20355;-68
2022/01/10 01:48:48;;;;;;;;;;;;;;;20.61;47.79;99195.75;2108109;28;20294;-68
2022/01/10 01:49:48;;;;;;;;;;;;;;;20.62;47.88;99197.44;2104748;28;19913;-68
2022/01/10 01:50:48;;;;;;;;;;;;;;;20.63;47.83;99190.91;2107989;28;19916;-68
2022/01/10 01:51:49;;;;;;;;;;;;;;;20.62;47.96;99187.31;2108515;28;19912;-66
2022/01/10 01:52:49;;;;;;;;;;;;;;;20.63;47.77;99188.16;2108600;28;19958;-66
2022/01/10 01:53:50;;;;;;;;;;;;;;;20.64;47.80;99185.25;2107667;28;20310;-66
2022/01/10 01:54:51;;;;;;;;;;;;;;;20.64;47.71;99178.94;2107845;28;19957;-66
2022/01/10 01:55:51;;;;;;;;;;;;;;;20.65;47.95;99186.09;2104694;28;19998;-68
2022/01/10 01:56:51;;;;;;;;;;;;;;;20.65;47.78;99180.63;2105940;28;20302;-67
2022/01/10 01:57:52;;;;;;;;;;;;;;;20.66;47.83;99183.19;2112503;28;20469;-67
2022/01/10 01:58:54;;;;;;;;;;;;;;;20.67;47.92;99184.03;2108574;28;19916;-66
2022/01/10 01:59:54;;;;;;;;;;;;;;;20.67;47.90;99184.03;2108402;28;19912;-66
2022/01/10 02:00:55;;;;;;;;;;;;;;;20.67;47.67;99184.88;2107460;28;19919;-65
2022/01/10 02:01:55;;;;;;;;;;;;;;;20.68;47.58;99188.50;2109038;28;19919;-66
2022/01/10 02:02:56;;;;;;;;;;;;;;;20.69;47.79;99190.19;2113848;28;19915;-66
2022/01/10 02:03:56;;;;;;;;;;;;;;;20.69;47.68;99181.97;2108455;28;19912;-67
2022/01/10 02:04:57;;;;;;;;;;;;;;;20.69;47.72;99195.66;2108803;28;19912;-66
2022/01/10 02:05:57;;;;;;;;;;;;;;;20.70;47.91;99200.97;2116624;28;19947;-66
2022/01/10 02:06:57;;;;;;;;;;;;;;;20.71;47.81;99191.72;2109525;28;19912;-66
2022/01/10 02:07:58;;;;;;;;;;;;;;;20.72;47.83;99192.56;2099320;28;19919;-67
2022/01/10 02:08:58;;;;;;;;;;;;;;;20.71;47.74;99201.81;2107297;28;19912;-67
2022/01/10 02:09:58;;;;;;;;;;;;;;;20.71;47.69;99199.09;2111664;28;19947;-67
2022/01/10 02:10:59;;;;;;;;;;;;;;;20.71;47.83;99196.34;2107965;28;19912;-67
2022/01/10 02:11:59;;;;;;;;;;;;;;;20.71;47.83;99188.13;2108541;28;19912;-66
2022/01/10 02:12:59;;;;;;;;;;;;;;;20.71;47.64;99190.88;2108028;28;19974;-65
2022/01/10 02:14:01;;;;;;;;;;;;;;;20.71;47.78;99191.72;2108160;28;20018;-66
2022/01/10 02:15:01;;;;;;;;;;;;;;;20.71;47.92;99188.97;2108046;28;19959;-66
2022/01/10 02:16:04;;;;;;;;;;;;;;;20.71;47.77;99182.66;2108171;28;19920;-67
2022/01/10 02:17:05;;;;;;;;;;;;;;;20.70;47.63;99190.03;2108199;28;20337;-66
2022/01/10 02:18:05;;;;;;;;;;;;;;;20.70;47.83;99184.53;2111693;28;19912;-67
2022/01/10 02:19:06;;;;;;;;;;;;;;;20.70;47.76;99178.19;2116762;28;20006;-67
2022/01/10 02:20:07;;;;;;;;;;;;;;;20.69;47.80;99181.97;2116753;28;19969;-67
2022/01/10 02:21:09;;;;;;;;;;;;;;;20.70;47.77;99189.16;2109993;28;20062;-66
2022/01/10 02:22:09;;;;;;;;;;;;;;;20.71;47.87;99185.41;2110111;28;19912;-68
2022/01/10 02:23:09;;;;;;;;;;;;;;;20.71;47.86;99193.59;2107436;28;20002;-67
2022/01/10 02:24:10;;;;;;;;;;;;;;;20.69;47.75;99190.19;2106117;28;19968;-67
2022/01/10 02:25:10;;;;;;;;;;;;;;;20.69;47.75;99187.44;2107388;28;20275;-67
2022/01/10 02:26:12;;;;;;;;;;;;;;;20.68;47.61;99185.75;2106595;28;19913;-66
2022/01/10 02:27:13;;;;;;;;;;;;;;;20.69;47.96;99193.78;2106395;28;19943;-65
2022/01/10 02:28:13;;;;;;;;;;;;;;;20.67;47.81;99189.53;2107699;28;20068;-65
2022/01/10 02:29:14;;;;;;;;;;;;;;;20.65;47.99;99197.94;2106649;28;19922;-66
2022/01/10 02:30:14;;;;;;;;;;;;;;;20.62;48.04;99191.94;2107509;28;19916;-65
2022/01/10 02:31:15;;;;;;;;;;;;;;;20.58;47.97;99194.22;2107435;28;19919;-65
2022/01/10 02:32:16;;;;;;;;;;;;;;;20.55;48.11;99189.97;2107523;28;20321;-65
2022/01/10 02:33:16;;;;;;;;;;;;;;;20.53;48.06;99183.78;2107398;28;19923;-65
2022/01/10 02:34:19;;;;;;;;;;;;;;;20.50;48.11;99181.38;2106867;28;20380;-65
2022/01/10 02:35:36;;;;;;;;;;;;;;;20.50;48.24;99183.25;2114487;28;19919;-65
2022/01/10 02:36:37;;;;;;;;;;;;;;;20.48;48.31;99180.72;2107679;28;19912;-66
2022/01/10 02:37:37;;;;;;;;;;;;;;;20.46;48.38;99180.06;2108083;28;19943;-65
2022/01/10 02:38:45;;;;;;;;;;;;;;;20.46;48.19;99171.84;2107604;28;19930;-65
2022/01/10 02:39:45;;;;;;;;;;;;;;;20.45;48.39;99181.06;2107437;28;20357;-66
2022/01/10 02:40:47;;;;;;;;;;;;;;;20.44;48.27;99176.63;2107648;28;19912;-65
2022/01/10 02:41:47;;;;;;;;;;;;;;;20.44;48.28;99173.91;2108069;28;20370;-64
2022/01/10 02:42:48;;;;;;;;;;;;;;;20.42;48.41;99178.69;2109412;28;20259;-66
2022/01/10 02:43:48;;;;;;;;;;;;;;;20.42;48.32;99175.97;2112101;28;20340;-65
2022/01/10 02:44:48;;;;;;;;;;;;;;;20.42;48.24;99175.97;2107420;28;19974;-66
2022/01/10 02:45:49;;;;;;;;;;;;;;;20.42;48.37;99175.97;2107509;28;19951;-65
2022/01/10 02:46:49;;;;;;;;;;;;;;;20.40;48.47;99172.53;2107767;28;19920;-65
2022/01/10 02:47:50;;;;;;;;;;;;;;;20.41;48.31;99173.44;2107875;28;19962;-66
2022/01/10 02:48:51;;;;;;;;;;;;;;;20.41;48.45;99178.91;2107729;28;20294;-65
2022/01/10 02:49:51;;;;;;;;;;;;;;;20.39;48.51;99170.84;2098587;28;20310;-65
2022/01/10 02:50:51;;;;;;;;;;;;;;;20.39;48.33;99165.38;2098193;28;20318;-65
2022/01/10 02:51:54;;;;;;;;;;;;;;;20.38;48.52;99168.28;2103104;28;19966;-65
2022/01/10 02:52:54;;;;;;;;;;;;;;;20.39;48.55;99170.84;2114646;28;20354;-65
2022/01/10 02:53:54;;;;;;;;;;;;;;;20.37;48.40;99178.38;2107465;28;20342;-66
2022/01/10 02:54:57;;;;;;;;;;;;;;;20.38;48.58;99173.75;2106985;28;20337;-65
2022/01/10 02:55:57;;;;;;;;;;;;;;;20.36;48.48;99173.97;2107657;28;19916;-65
2022/01/10 02:56:58;;;;;;;;;;;;;;;20.37;48.56;99175.66;2107341;28;20425;-65
2022/01/10 02:57:58;;;;;;;;;;;;;;;20.36;48.44;99173.97;2110247;28;19916;-65
2022/01/10 02:58:59;;;;;;;;;;;;;;;20.35;48.61;99178.56;2107531;28;20382;-65
2022/01/10 02:59:59;;;;;;;;;;;;;;;20.35;48.51;99181.28;2107588;28;19912;-66
2022/01/10 03:01:00;;;;;;;;;;;;;;;20.35;48.49;99186.78;2103656;28;20401;-65
2022/01/10 03:02:00;;;;;;;;;;;;;;;20.35;48.66;99183.19;2107518;28;19916;-66
2022/01/10 03:03:06;;;;;;;;;;;;;;;20.34;48.63;99184.22;2107425;28;19912;-66
2022/01/10 03:04:06;;;;;;;;;;;;;;;20.33;48.53;99182.50;2109036;28;19935;-65
2022/01/10 03:05:07;;;;;;;;;;;;;;;20.34;48.50;99184.22;2108077;28;20380;-65
2022/01/10 03:07:46;;;;;;;;;;;;;;;20.31;48.69;99182.72;2099330;28;19960;-65
2022/01/10 03:08:46;;;;;;;;;;;;;;;20.32;48.55;99186.28;2099905;28;19912;-65
2022/01/10 03:09:46;;;;;;;;;;;;;;;20.31;48.62;99184.59;2105404;28;19912;-66
2022/01/10 03:10:47;;;;;;;;;;;;;;;20.31;48.65;99190.91;2107527;28;19920;-65
2022/01/10 03:11:47;;;;;;;;;;;;;;;20.30;48.58;99193.81;2112368;28;19912;-65
2022/01/10 03:12:48;;;;;;;;;;;;;;;20.31;48.56;99201.03;2114815;28;20285;-65
2022/01/10 03:13:48;;;;;;;;;;;;;;;20.31;48.71;99206.50;2098456;28;20395;-65
2022/01/10 03:14:48;;;;;;;;;;;;;;;20.29;48.66;99209.41;2098286;28;19927;-65
2022/01/10 03:15:49;;;;;;;;;;;;;;;20.30;48.55;99215.72;2106033;28;19943;-65
2022/01/10 03:16:49;;;;;;;;;;;;;;;20.29;48.60;99214.03;2107518;28;19916;-65
2022/01/10 03:17:49;;;;;;;;;;;;;;;20.28;48.68;99217.78;2107456;28;19916;-65
2022/01/10 03:18:50;;;;;;;;;;;;;;;20.28;48.68;99217.78;2114534;28;19924;-65
2022/01/10 03:19:50;;;;;;;;;;;;;;;20.28;48.71;99223.25;2100933;28;19920;-65
2022/01/10 03:20:51;;;;;;;;;;;;;;;20.28;48.73;99217.78;2098353;28;19919;-65
2022/01/10 03:21:51;;;;;;;;;;;;;;;20.28;48.61;99223.25;2106597;28;19912;-65
2022/01/10 03:22:52;;;;;;;;;;;;;;;20.28;48.79;99223.25;2098836;28;19973;-65
2022/01/10 03:23:53;;;;;;;;;;;;;;;20.26;48.76;99226.19;2105900;28;19919;-65
2022/01/10 03:24:54;;;;;;;;;;;;;;;20.26;48.68;99215.25;2111528;28;19920;-65
2022/01/10 03:25:54;;;;;;;;;;;;;;;20.26;48.81;99225.31;2107182;28;19920;-65
2022/01/10 03:26:54;;;;;;;;;;;;;;;20.26;48.74;99225.31;2106948;28;19912;-65
2022/01/10 03:27:55;;;;;;;;;;;;;;;20.26;48.82;99225.31;2109583;28;20379;-65
2022/01/10 03:28:55;;;;;;;;;;;;;;;20.25;48.62;99229.94;2113134;28;20396;-65
2022/01/10 03:29:55;;;;;;;;;;;;;;;20.25;48.68;99234.56;2098809;28;20326;-65
2022/01/10 03:30:56;;;;;;;;;;;;;;;20.25;48.82;99229.09;2106240;28;20398;-65
2022/01/10 03:31:56;;;;;;;;;;;;;;;20.24;48.70;99233.72;2097622;28;19927;-65
2022/01/10 03:32:58;;;;;;;;;;;;;;;20.24;48.86;99232.88;2097985;28;19919;-65
2022/01/10 03:33:58;;;;;;;;;;;;;;;20.24;48.85;99239.19;2107156;28;19912;-65
2022/01/10 03:34:59;;;;;;;;;;;;;;;20.23;48.86;99237.47;2098110;28;19917;-65
2022/01/10 03:35:59;;;;;;;;;;;;;;;20.23;48.77;99236.63;2098008;28;19913;-65
2022/01/10 03:36:59;;;;;;;;;;;;;;;20.23;48.74;99225.66;2106982;28;19952;-66
2022/01/10 03:38:00;;;;;;;;;;;;;;;20.21;48.86;99228.59;2106736;28;19920;-65
2022/01/10 03:39:00;;;;;;;;;;;;;;;20.22;48.86;99234.94;2107200;28;19912;-65
2022/01/10 03:40:00;;;;;;;;;;;;;;;20.20;49.01;99224.16;2107258;28;19918;-65
2022/01/10 03:41:01;;;;;;;;;;;;;;;20.23;48.80;99231.16;2101199;28;19912;-65
2022/01/10 03:42:01;;;;;;;;;;;;;;;20.22;48.78;99237.66;2098824;28;19913;-65
2022/01/10 03:43:02;;;;;;;;;;;;;;;20.21;48.88;99238.69;2107202;28;19912;-65
2022/01/10 03:44:04;;;;;;;;;;;;;;;20.21;48.78;99238.69;2107033;28;20064;-65
2022/01/10 03:45:05;;;;;;;;;;;;;;;20.22;48.93;99240.41;2106750;28;19912;-65
2022/01/10 03:46:06;;;;;;;;;;;;;;;20.20;48.80;99245.19;2099305;28;19919;-65
2022/01/10 03:47:07;;;;;;;;;;;;;;;20.20;48.83;99248.78;2107301;28;19912;-65
2022/01/10 03:48:07;;;;;;;;;;;;;;;20.20;48.85;99245.19;2107405;28;19918;-65
2022/01/10 03:49:07;;;;;;;;;;;;;;;20.19;48.90;99247.09;2107088;28;20008;-65
2022/01/10 03:50:08;;;;;;;;;;;;;;;20.20;48.98;99247.94;2107357;28;19912;-65
2022/01/10 03:51:08;;;;;;;;;;;;;;;20.19;48.99;99247.09;2098058;28;19913;-65
2022/01/10 03:52:08;;;;;;;;;;;;;;;20.18;48.89;99242.63;2099664;28;19919;-65
2022/01/10 03:53:09;;;;;;;;;;;;;;;20.18;48.81;99241.78;2107159;28;19952;-65
2022/01/10 03:54:09;;;;;;;;;;;;;;;20.17;48.97;99249.13;2101886;28;19917;-65
2022/01/10 03:55:10;;;;;;;;;;;;;;;20.16;48.87;99239.19;2099373;28;19956;-65
2022/01/10 03:56:10;;;;;;;;;;;;;;;20.16;49.00;99246.56;2107282;28;19957;-65
2022/01/10 03:57:11;;;;;;;;;;;;;;;20.16;49.18;99246.56;2107237;28;19962;-65
2022/01/10 03:58:11;;;;;;;;;;;;;;;20.15;49.00;99248.47;2107213;28;19912;-65
2022/01/10 03:59:11;;;;;;;;;;;;;;;20.14;49.17;99241.28;2107010;28;19912;-65
2022/01/10 04:00:12;;;;;;;;;;;;;;;20.13;49.03;99248.63;2106940;28;19912;-65
2022/01/10 04:01:13;;;;;;;;;;;;;;;20.14;49.05;99249.50;2115453;28;20335;-65
2022/01/10 04:02:14;;;;;;;;;;;;;;;20.12;48.95;99249.66;2110221;28;19912;-65
2022/01/10 04:03:14;;;;;;;;;;;;;;;20.12;49.10;99248.81;2107254;28;19912;-65
2022/01/10 04:04:14;;;;;;;;;;;;;;;20.12;49.09;99257.88;2115087;28;19912;-65
2022/01/10 04:05:15;;;;;;;;;;;;;;;20.12;49.10;99255.13;2108597;28;19942;-65
2022/01/10 04:06:15;;;;;;;;;;;;;;;20.12;49.03;99260.59;2089807;28;19913;-65
2022/01/10 04:07:21;;;;;;;;;;;;;;;20.11;49.07;99264.38;2091188;28;19971;-66
2022/01/10 04:08:22;;;;;;;;;;;;;;;20.11;49.09;99253.44;2102215;28;19913;-65
2022/01/10 04:09:22;;;;;;;;;;;;;;;20.11;48.97;99253.44;2099043;28;19956;-65
2022/01/10 04:10:22;;;;;;;;;;;;;;;20.10;49.12;99265.41;2098280;28;19917;-65
2022/01/10 04:11:23;;;;;;;;;;;;;;;20.10;49.00;99270.03;2090657;28;19924;-65
2022/01/10 04:12:24;;;;;;;;;;;;;;;20.10;49.09;99270.03;2098187;28;19916;-65
2022/01/10 04:13:25;;;;;;;;;;;;;;;20.09;49.03;99271.91;2107122;28;19920;-65
2022/01/10 04:14:25;;;;;;;;;;;;;;;20.08;49.14;99275.66;2107004;28;20379;-65
2022/01/10 04:15:26;;;;;;;;;;;;;;;20.08;49.12;99272.94;2098149;28;19964;-65
2022/01/10 04:16:26;;;;;;;;;;;;;;;20.08;49.14;99272.94;2098123;28;20391;-65
2022/01/10 04:17:26;;;;;;;;;;;;;;;20.08;49.12;99278.41;2098141;28;20332;-65
2022/01/10 04:18:27;;;;;;;;;;;;;;;20.07;49.12;99276.69;2109779;28;19923;-66
2022/01/10 04:19:27;;;;;;;;;;;;;;;20.07;49.21;99279.44;2115642;28;19918;-66
2022/01/10 04:20:27;;;;;;;;;;;;;;;20.08;49.19;99288.50;2109276;28;20443;-65
2022/01/10 04:21:27;;;;;;;;;;;;;;;20.07;49.23;99284.06;2107116;28;19972;-65
2022/01/10 04:22:28;;;;;;;;;;;;;;;20.07;49.24;99284.06;2107001;28;19912;-65
2022/01/10 04:23:28;;;;;;;;;;;;;;;20.07;49.29;99290.38;2103941;28;19912;-65
2022/01/10 04:24:28;;;;;;;;;;;;;;;20.06;49.25;99288.69;2098310;28;19988;-65
2022/01/10 04:25:29;;;;;;;;;;;;;;;20.06;49.13;99287.81;2099658;28;19912;-65
2022/01/10 04:26:30;;;;;;;;;;;;;;;20.05;49.11;99283.38;2103828;28;19919;-65
2022/01/10 04:27:32;;;;;;;;;;;;;;;20.04;49.17;99282.53;2097836;28;19912;-65
2022/01/10 04:28:32;;;;;;;;;;;;;;;20.05;49.23;99283.38;2090004;28;19913;-64
2022/01/10 04:29:32;;;;;;;;;;;;;;;20.04;49.25;99285.28;2099396;28;19916;-66
2022/01/10 04:30:33;;;;;;;;;;;;;;;20.04;49.31;99281.66;2098782;28;19912;-65
2022/01/10 04:31:33;;;;;;;;;;;;;;;20.03;49.19;99280.81;2105209;28;19912;-65
2022/01/10 04:32:34;;;;;;;;;;;;;;;20.03;49.38;99278.06;2107005;28;19920;-66
2022/01/10 04:33:34;;;;;;;;;;;;;;;20.02;49.29;99273.66;2107214;28;20262;-65
2022/01/10 04:34:36;;;;;;;;;;;;;;;20.01;49.24;99266.44;2106824;28;19912;-65
2022/01/10 04:35:36;;;;;;;;;;;;;;;20.02;49.35;99273.66;2107095;28;19919;-65
2022/01/10 04:36:36;;;;;;;;;;;;;;;20.01;49.37;99271.91;2106866;28;19919;-65
2022/01/10 04:37:49;;;;;;;;;;;;;;;20.02;49.23;99273.66;2106946;28;20336;-65
2022/01/10 04:38:49;;;;;;;;;;;;;;;20.01;49.35;99276.53;2098006;28;19917;-65
2022/01/10 04:39:49;;;;;;;;;;;;;;;20.00;49.35;99275.69;2097808;28;19913;-66
2022/01/10 04:40:50;;;;;;;;;;;;;;;20.01;49.40;99276.53;2106986;28;19933;-65
2022/01/10 04:41:50;;;;;;;;;;;;;;;20.01;49.22;99280.13;2106925;28;19973;-65
2022/01/10 04:42:50;;;;;;;;;;;;;;;20.00;49.30;99272.97;2111847;28;19996;-65
2022/01/10 04:43:51;;;;;;;;;;;;;;;19.99;49.26;99279.47;2115198;28;20357;-65
2022/01/10 04:44:51;;;;;;;;;;;;;;;19.98;49.37;99275.00;2115598;28;19943;-65
2022/01/10 04:45:51;;;;;;;;;;;;;;;19.99;49.43;99274.00;2098702;28;20314;-65
2022/01/10 04:46:52;;;;;;;;;;;;;;;19.99;49.37;99279.47;2097950;28;19955;-65
2022/01/10 04:47:52;;;;;;;;;;;;;;;19.99;49.44;99284.06;2098722;28;19916;-65
2022/01/10 04:48:52;;;;;;;;;;;;;;;19.98;49.42;99282.38;2105896;28;19927;-65
2022/01/10 04:51:59;;;;;;;;;;;;;;;19.98;49.40;99294.16;2106852;28;19912;-66
2022/01/10 04:52:59;;;;;;;;;;;;;;;19.97;49.46;99287.00;2106718;28;20390;-65
2022/01/10 04:54:00;;;;;;;;;;;;;;;19.97;49.44;99287.00;2098140;28;19967;-65
2022/01/10 04:55:01;;;;;;;;;;;;;;;19.96;49.34;99290.75;2097671;28;19982;-65
2022/01/10 04:56:07;;;;;;;;;;;;;;;19.96;49.53;99284.44;2106904;28;19912;-65
2022/01/10 04:57:08;;;;;;;;;;;;;;;19.96;49.47;99285.28;2107087;28;19912;-65
2022/01/10 04:58:08;;;;;;;;;;;;;;;19.95;49.40;99297.25;2107018;28;19961;-65
2022/01/10 04:59:08;;;;;;;;;;;;;;;19.94;49.45;99290.06;2106445;28;20006;-65
2022/01/10 05:00:10;;;;;;;;;;;;;;;19.94;49.40;99292.78;2107046;28;19919;-65
2022/01/10 05:01:11;;;;;;;;;;;;;;;19.94;49.61;99290.06;2106551;28;19912;-65
2022/01/10 05:02:11;;;;;;;;;;;;;;;19.94;49.46;99295.53;2097936;28;19913;-65
2022/01/10 05:03:12;;;;;;;;;;;;;;;19.93;49.54;99291.09;2097856;28;19918;-65
2022/01/10 05:04:12;;;;;;;;;;;;;;;19.92;49.48;99301.19;2106812;28;19922;-65
2022/01/10 05:05:12;;;;;;;;;;;;;;;19.92;49.55;99293.00;2106291;28;19916;-65
2022/01/10 05:06:13;;;;;;;;;;;;;;;19.92;49.47;99300.34;2108619;28;19920;-65
2022/01/10 05:07:13;;;;;;;;;;;;;;;19.92;49.44;99294.88;2108872;28;20396;-65
2022/01/10 05:08:13;;;;;;;;;;;;;;;19.92;49.58;99300.34;2106459;28;19912;-65
2022/01/10 05:09:14;;;;;;;;;;;;;;;19.92;49.43;99300.34;2106828;28;19912;-65
2022/01/10 05:10:14;;;;;;;;;;;;;;;19.90;49.53;99292.31;2113059;28;20408;-65
2022/01/10 05:11:16;;;;;;;;;;;;;;;19.91;49.60;99304.09;2115517;28;20411;-65
2022/01/10 05:12:16;;;;;;;;;;;;;;;19.91;49.51;99304.09;2114850;28;19970;-65
2022/01/10 05:13:17;;;;;;;;;;;;;;;19.90;49.66;99308.72;2115453;28;19912;-65
2022/01/10 05:14:17;;;;;;;;;;;;;;;19.91;49.53;99309.56;2108983;28;19912;-65
2022/01/10 05:15:17;;;;;;;;;;;;;;;19.90;49.49;99302.41;2097888;28;19917;-65
2022/01/10 05:16:19;;;;;;;;;;;;;;;19.90;49.59;99307.88;2106148;28;20019;-65
2022/01/10 05:17:22;;;;;;;;;;;;;;;19.90;49.52;99305.13;2097615;28;19919;-65
2022/01/10 05:18:23;;;;;;;;;;;;;;;19.89;49.55;99307.03;2098129;28;19956;-65
2022/01/10 05:19:23;;;;;;;;;;;;;;;19.89;49.62;99307.03;2106790;28;19916;-65
2022/01/10 05:20:24;;;;;;;;;;;;;;;19.89;49.67;99311.63;2106791;28;19975;-65
2022/01/10 05:21:24;;;;;;;;;;;;;;;19.88;49.64;99307.19;2107110;28;19912;-65
2022/01/10 05:22:24;;;;;;;;;;;;;;;19.88;49.56;99309.91;2107015;28;19958;-66
2022/01/10 05:23:25;;;;;;;;;;;;;;;19.88;49.68;99315.38;2106683;28;20007;-65
2022/01/10 05:24:25;;;;;;;;;;;;;;;19.87;49.60;99313.69;2106852;28;19912;-65
2022/01/10 05:25:25;;;;;;;;;;;;;;;19.88;49.61;99309.91;2114463;28;19912;-65
2022/01/10 05:26:25;;;;;;;;;;;;;;;19.88;49.65;99309.91;2114734;28;19915;-65
2022/01/10 05:27:26;;;;;;;;;;;;;;;19.87;49.64;99313.69;2107016;28;20381;-65
2022/01/10 05:28:26;;;;;;;;;;;;;;;19.86;49.65;99321.03;2101132;28;19919;-65
2022/01/10 05:29:27;;;;;;;;;;;;;;;19.87;49.65;99317.28;2097696;28;20062;-65
2022/01/10 05:30:27;;;;;;;;;;;;;;;19.86;49.72;99328.38;2093009;28;19913;-65
2022/01/10 05:31:34;;;;;;;;;;;;;;;19.86;49.55;99333.84;2099596;28;19959;-65
2022/01/10 05:32:34;;;;;;;;;;;;;;;19.85;49.64;99322.06;2106986;28;19912;-65
2022/01/10 05:33:34;;;;;;;;;;;;;;;19.85;49.69;99332.16;2106880;28;19952;-65
2022/01/10 05:34:35;;;;;;;;;;;;;;;19.84;49.67;99334.03;2106882;28;20371;-65